createdAt,value
2019-05-20T00:01:21.483Z,0.72
2019-05-20T00:03:48.144Z,0.75
2019-05-20T00:06:14.796Z,0.98
2019-05-20T00:08:41.332Z,0.62
2019-05-20T00:11:07.659Z,0.70
2019-05-20T00:13:34.101Z,0.70
2019-05-20T00:16:00.414Z,0.98
2019-05-20T00:18:26.747Z,0.78
2019-05-20T00:20:53.051Z,0.62
2019-05-20T00:23:19.343Z,0.75
2019-05-20T00:25:45.879Z,1.00
2019-05-20T00:28:12.308Z,0.62
2019-05-20T00:30:38.921Z,0.70
2019-05-20T00:33:05.145Z,0.70
2019-05-20T00:35:31.649Z,0.60
2019-05-20T00:37:57.966Z,0.80
2019-05-20T00:40:24.373Z,0.60
2019-05-20T00:42:50.722Z,0.80
2019-05-20T00:45:17.127Z,0.60
2019-05-20T00:47:43.535Z,0.70
2019-05-20T00:50:09.847Z,0.70
2019-05-20T00:52:36.247Z,0.65
2019-05-20T00:55:04.877Z,0.50
2019-05-20T00:57:31.283Z,0.70
2019-05-20T00:59:57.596Z,0.88
2019-05-20T01:02:24.016Z,0.72
2019-05-20T01:04:50.441Z,0.72
2019-05-20T01:07:16.760Z,0.50
2019-05-20T01:09:43.181Z,0.80
2019-05-20T01:12:09.488Z,0.78
2019-05-20T01:14:35.907Z,0.70
2019-05-20T01:17:02.216Z,0.65
2019-05-20T01:19:28.648Z,0.70
2019-05-20T01:21:54.959Z,0.75
2019-05-20T01:24:21.258Z,0.78
2019-05-20T01:26:47.597Z,0.72
2019-05-20T01:29:14.135Z,0.80
2019-05-20T01:31:40.424Z,0.60
2019-05-20T01:34:06.732Z,0.80
2019-05-20T01:36:33.156Z,0.65
2019-05-20T01:38:59.663Z,0.75
2019-05-20T01:41:25.959Z,0.70
2019-05-20T01:43:52.427Z,0.80
2019-05-20T01:46:18.698Z,0.57
2019-05-20T01:48:45.190Z,0.55
2019-05-20T01:51:11.660Z,0.70
2019-05-20T01:53:38.263Z,0.60
2019-05-20T01:56:04.589Z,0.45
2019-05-20T01:58:31.025Z,0.68
2019-05-20T02:00:57.390Z,0.50
2019-05-20T02:03:31.557Z,0.70
2019-05-20T02:05:52.721Z,0.70
2019-05-20T02:08:19.066Z,0.60
2019-05-20T02:10:45.365Z,0.60
2019-05-20T02:13:11.795Z,0.70
2019-05-20T02:15:54.983Z,0.80
2019-05-20T02:18:22.373Z,0.78
2019-05-20T02:20:48.687Z,0.70
2019-05-20T02:23:15.596Z,0.80
2019-05-20T02:25:46.877Z,0.80
2019-05-20T02:28:13.480Z,0.70
2019-05-20T02:30:39.782Z,0.70
2019-05-20T02:33:06.104Z,0.72
2019-05-20T02:35:32.424Z,0.78
2019-05-20T02:37:58.720Z,0.70
2019-05-20T02:40:25.024Z,0.70
2019-05-20T02:42:51.335Z,0.62
2019-05-20T02:45:17.878Z,0.68
2019-05-20T02:47:44.181Z,0.60
2019-05-20T02:50:10.704Z,0.70
2019-05-20T02:52:37.015Z,0.70
2019-05-20T02:55:05.728Z,0.80
2019-05-20T02:57:32.069Z,0.68
2019-05-20T02:59:58.357Z,0.65
2019-05-20T03:02:24.759Z,0.70
2019-05-20T03:04:51.196Z,0.70
2019-05-20T03:07:17.729Z,1.00
2019-05-20T03:09:44.125Z,1.45
2019-05-20T03:12:17.365Z,1.10
2019-05-20T03:14:44.505Z,1.70
2019-05-20T03:17:10.986Z,1.90
2019-05-20T03:19:48.792Z,1.60
2019-05-20T03:22:18.645Z,2.27
2019-05-20T03:24:45.154Z,1.60
2019-05-20T03:27:11.463Z,1.42
2019-05-20T03:29:37.877Z,1.75
2019-05-20T03:32:11.898Z,1.35
2019-05-20T03:34:46.530Z,1.60
2019-05-20T03:37:06.430Z,1.80
2019-05-20T03:39:32.724Z,1.30
2019-05-20T03:41:59.282Z,1.50
2019-05-20T03:44:25.610Z,1.50
2019-05-20T03:46:52.015Z,1.30
2019-05-20T03:49:18.416Z,1.80
2019-05-20T03:51:44.822Z,1.30
2019-05-20T03:54:14.443Z,1.47
2019-05-20T03:56:40.751Z,1.50
2019-05-20T03:59:07.057Z,1.15
2019-05-20T04:01:33.460Z,1.20
2019-05-20T04:03:59.764Z,1.30
2019-05-20T04:06:26.104Z,1.50
2019-05-20T04:08:53.335Z,1.30
2019-05-20T04:11:19.847Z,1.10
2019-05-20T04:13:46.679Z,1.20
2019-05-20T04:16:13.099Z,1.30
2019-05-20T04:18:39.421Z,1.10
2019-05-20T04:21:05.943Z,1.32
2019-05-20T04:23:32.245Z,0.80
2019-05-20T04:25:58.925Z,1.00
2019-05-20T04:28:25.191Z,1.30
2019-05-20T04:30:51.541Z,0.90
2019-05-20T04:33:17.852Z,1.02
2019-05-20T04:35:44.158Z,0.80
2019-05-20T04:38:10.683Z,0.80
2019-05-20T04:40:36.985Z,1.00
2019-05-20T04:43:03.412Z,0.90
2019-05-20T04:45:29.819Z,0.90
2019-05-20T04:47:56.128Z,1.20
2019-05-20T04:50:22.476Z,0.90
2019-05-20T04:52:48.914Z,1.02
2019-05-20T04:55:15.309Z,0.82
2019-05-20T04:57:41.806Z,0.90
2019-05-20T05:00:08.358Z,0.80
2019-05-20T05:02:34.812Z,1.00
2019-05-20T05:05:01.092Z,0.90
2019-05-20T05:07:27.409Z,0.80
2019-05-20T05:09:54.763Z,0.70
2019-05-20T05:12:21.194Z,1.00
2019-05-20T05:14:47.731Z,1.00
2019-05-20T05:17:14.054Z,0.90
2019-05-20T05:19:40.347Z,0.75
2019-05-20T05:22:06.714Z,0.85
2019-05-20T05:24:33.220Z,0.90
2019-05-20T05:26:59.510Z,0.85
2019-05-20T05:29:34.402Z,0.78
2019-05-20T05:32:00.820Z,1.00
2019-05-20T05:34:27.143Z,0.98
2019-05-20T05:36:53.661Z,0.80
2019-05-20T05:39:20.075Z,1.00
2019-05-20T05:41:46.399Z,0.80
2019-05-20T05:44:12.706Z,0.90
2019-05-20T05:46:39.083Z,0.88
2019-05-20T05:49:05.598Z,0.80
2019-05-20T05:51:31.996Z,0.78
2019-05-20T05:53:58.335Z,0.90
2019-05-20T05:56:24.739Z,1.07
2019-05-20T05:58:51.055Z,1.00
2019-05-20T06:01:17.359Z,0.80
2019-05-20T06:03:44.106Z,0.90
2019-05-20T06:06:12.691Z,0.88
2019-05-20T06:08:39.475Z,0.90
2019-05-20T06:11:07.824Z,1.00
2019-05-20T06:13:37.737Z,0.90
2019-05-20T06:16:08.178Z,0.90
2019-05-20T06:18:43.786Z,0.90
2019-05-20T06:21:13.710Z,0.85
2019-05-20T06:23:50.822Z,0.80
2019-05-20T06:26:26.934Z,0.85
2019-05-20T06:29:07.713Z,0.90
2019-05-20T06:31:38.864Z,0.70
2019-05-20T06:34:11.860Z,0.90
2019-05-20T06:36:50.224Z,0.90
2019-05-20T06:39:17.583Z,0.80
2019-05-20T06:41:45.954Z,0.88
2019-05-20T06:44:16.679Z,0.82
2019-05-20T06:46:45.362Z,0.70
2019-05-20T06:49:13.080Z,1.12
2019-05-20T06:51:41.928Z,1.00
2019-05-20T06:54:08.708Z,0.80
2019-05-20T06:56:48.875Z,0.95
2019-05-20T06:59:23.285Z,1.00
2019-05-20T07:01:47.962Z,0.90
2019-05-20T07:04:16.308Z,1.00
2019-05-20T07:06:47.074Z,1.00
2019-05-20T07:09:17.200Z,1.02
2019-05-20T07:11:52.864Z,1.00
2019-05-20T07:14:18.877Z,0.90
2019-05-20T07:16:49.560Z,1.10
2019-05-20T07:19:20.484Z,1.07
2019-05-20T07:21:49.437Z,0.90
2019-05-20T07:24:17.768Z,0.95
2019-05-20T07:26:47.335Z,0.70
2019-05-20T07:29:15.356Z,1.10
2019-05-20T07:31:43.077Z,1.00
2019-05-20T07:34:11.580Z,1.25
2019-05-20T07:36:39.925Z,1.27
2019-05-20T07:39:09.039Z,1.10
2019-05-20T07:41:41.139Z,1.20
2019-05-20T07:44:09.303Z,1.10
2019-05-20T07:46:40.651Z,1.07
2019-05-20T07:49:10.426Z,0.98
2019-05-20T07:51:45.069Z,1.10
2019-05-20T07:54:17.302Z,1.20
2019-05-20T07:56:47.541Z,1.25
2019-05-20T07:59:17.302Z,1.25
2019-05-20T08:01:50.875Z,1.20
2019-05-20T08:04:24.422Z,1.20
2019-05-20T08:06:56.655Z,1.27
2019-05-20T08:09:27.591Z,1.10
2019-05-20T08:12:02.008Z,0.93
2019-05-20T08:14:35.499Z,1.10
2019-05-20T08:17:11.295Z,1.50
2019-05-20T08:19:47.302Z,1.10
2019-05-20T08:22:19.627Z,1.20
2019-05-20T08:24:56.004Z,1.27
2019-05-20T08:27:25.875Z,1.90
2019-05-20T08:30:01.266Z,1.42
2019-05-20T08:32:32.428Z,1.87
2019-05-20T08:35:07.292Z,1.85
2019-05-20T08:37:45.286Z,2.12
2019-05-20T08:40:09.840Z,1.98
2019-05-20T08:42:40.342Z,2.00
2019-05-20T08:45:10.163Z,2.50
2019-05-20T08:47:39.976Z,2.30
2019-05-20T08:50:15.671Z,2.15
2019-05-20T08:52:42.105Z,2.25
2019-05-20T08:55:11.844Z,2.85
2019-05-20T08:57:43.561Z,2.95
2019-05-20T09:00:15.073Z,2.35
2019-05-20T09:02:44.397Z,2.58
2019-05-20T09:05:13.483Z,2.20
2019-05-20T09:08:02.487Z,2.52
2019-05-20T09:10:21.914Z,2.20
2019-05-20T09:12:54.898Z,2.27
2019-05-20T09:15:27.136Z,2.67
2019-05-20T09:18:00.420Z,2.60
2019-05-20T09:20:30.126Z,2.40
2019-05-20T09:23:02.702Z,2.33
2019-05-20T09:25:34.830Z,2.60
2019-05-20T09:28:10.599Z,2.47
2019-05-20T09:30:42.178Z,2.80
2019-05-20T09:33:14.792Z,2.80
2019-05-20T09:35:45.833Z,2.75
2019-05-20T09:38:22.354Z,2.65
2019-05-20T09:40:57.677Z,2.80
2019-05-20T09:43:26.788Z,2.42
2019-05-20T09:46:06.318Z,3.17
2019-05-20T09:48:26.874Z,3.10
2019-05-20T09:50:57.151Z,2.92
2019-05-20T09:53:28.962Z,3.12
2019-05-20T09:55:58.989Z,2.77
2019-05-20T09:58:29.653Z,2.77
2019-05-20T10:01:02.083Z,3.12
2019-05-20T10:03:33.954Z,3.22
2019-05-20T10:06:05.643Z,3.10
2019-05-20T10:08:41.016Z,2.95
2019-05-20T10:11:07.868Z,3.12
2019-05-20T10:13:37.569Z,3.33
2019-05-20T10:16:09.633Z,3.60
2019-05-20T10:18:44.405Z,3.20
2019-05-20T10:21:14.261Z,3.52
2019-05-20T10:23:43.769Z,2.92
2019-05-20T10:26:13.013Z,3.22
2019-05-20T10:28:42.242Z,2.87
2019-05-20T10:31:13.467Z,2.95
2019-05-20T10:33:43.276Z,3.22
2019-05-20T10:36:15.317Z,2.50
2019-05-20T10:38:58.094Z,2.80
2019-05-20T10:41:14.967Z,2.70
2019-05-20T10:43:50.070Z,2.40
2019-05-20T10:46:22.190Z,2.42
2019-05-20T10:48:58.660Z,2.33
2019-05-20T10:51:29.190Z,2.10
2019-05-20T10:53:58.755Z,1.75
2019-05-20T10:56:30.494Z,1.90
2019-05-20T10:59:00.590Z,2.05
2019-05-20T11:01:32.980Z,1.92
2019-05-20T11:04:03.354Z,1.90
2019-05-20T11:06:34.216Z,1.55
2019-05-20T11:09:13.640Z,1.70
2019-05-20T11:11:39.497Z,1.60
2019-05-20T11:14:11.538Z,1.90
2019-05-20T11:16:44.167Z,1.50
2019-05-20T11:19:21.459Z,1.55
2019-05-20T11:21:53.430Z,1.47
2019-05-20T11:24:28.522Z,1.45
2019-05-20T11:26:57.248Z,1.50
2019-05-20T11:29:28.328Z,0.90
2019-05-20T11:31:59.151Z,1.10
2019-05-20T11:34:33.384Z,1.20
2019-05-20T11:37:08.940Z,1.40
2019-05-20T11:39:46.287Z,1.40
2019-05-20T11:42:19.883Z,1.50
2019-05-20T11:44:54.136Z,1.50
2019-05-20T11:47:27.015Z,2.02
2019-05-20T11:49:58.742Z,1.60
2019-05-20T11:52:34.331Z,1.40
2019-05-20T11:55:06.760Z,1.32
2019-05-20T11:57:39.466Z,1.47
2019-05-20T12:00:10.706Z,1.80
2019-05-20T12:02:46.050Z,2.52
2019-05-20T12:05:21.044Z,2.35
2019-05-20T12:07:53.476Z,1.72
2019-05-20T12:10:21.880Z,2.12
2019-05-20T12:12:48.402Z,2.00
2019-05-20T12:15:14.789Z,1.70
2019-05-20T12:17:44.899Z,1.50
2019-05-20T12:20:14.938Z,1.60
2019-05-20T12:22:44.894Z,1.50
2019-05-20T12:25:15.729Z,1.47
2019-05-20T12:27:45.672Z,1.45
2019-05-20T12:30:15.619Z,1.80
2019-05-20T12:32:44.675Z,1.60
2019-05-20T12:35:15.699Z,1.70
2019-05-20T12:37:47.020Z,1.70
2019-05-20T12:40:22.536Z,1.40
2019-05-20T12:42:58.286Z,1.20
2019-05-20T12:45:31.483Z,1.35
2019-05-20T12:48:02.664Z,1.20
2019-05-20T12:50:35.639Z,1.00
2019-05-20T12:53:09.439Z,1.50
2019-05-20T12:55:44.396Z,1.27
2019-05-20T12:58:16.117Z,1.00
2019-05-20T14:03:29.798Z,1.72
2019-05-20T14:05:58.897Z,1.75
2019-05-20T14:08:25.205Z,1.70
2019-05-20T14:11:03.843Z,1.30
2019-05-20T14:13:19.947Z,1.27
2019-05-20T14:15:46.401Z,1.57
2019-05-20T14:18:12.708Z,1.35
2019-05-20T14:20:39.439Z,1.45
2019-05-20T14:23:06.000Z,1.42
2019-05-20T14:25:32.505Z,1.65
2019-05-20T14:28:06.261Z,1.60
2019-05-20T14:30:31.995Z,1.50
2019-05-20T14:32:58.446Z,10.00
2019-05-20T14:35:24.959Z,14.60
2019-05-20T14:37:51.588Z,15.58
2019-05-20T14:40:17.920Z,15.65
2019-05-20T14:42:44.332Z,13.83
2019-05-20T14:45:10.775Z,13.88
2019-05-20T14:47:37.286Z,14.45
2019-05-20T14:50:06.686Z,13.53
2019-05-20T14:52:33.085Z,11.83
2019-05-20T14:54:59.529Z,10.50
2019-05-20T14:57:25.876Z,10.28
2019-05-20T14:59:52.171Z,8.08
2019-05-20T15:02:18.496Z,6.97
2019-05-20T15:04:44.804Z,6.35
2019-05-20T15:07:11.112Z,5.50
2019-05-20T15:09:37.728Z,4.70
2019-05-20T15:12:04.266Z,4.35
2019-05-20T15:14:30.557Z,3.58
2019-05-20T15:16:56.883Z,3.47
2019-05-20T15:19:23.284Z,3.30
2019-05-20T15:21:49.620Z,2.77
2019-05-20T15:24:28.089Z,2.47
2019-05-20T15:26:53.266Z,2.40
2019-05-20T15:29:28.182Z,1.98
2019-05-20T15:31:47.914Z,1.72
2019-05-20T15:34:14.266Z,1.60
2019-05-20T15:36:40.717Z,1.60
2019-05-20T15:39:06.985Z,1.50
2019-05-20T15:41:33.755Z,1.40
2019-05-20T15:44:00.023Z,1.22
2019-05-20T15:46:26.490Z,1.00
2019-05-20T15:48:52.931Z,1.15
2019-05-20T15:51:19.328Z,1.00
2019-05-20T15:53:46.552Z,1.20
2019-05-20T15:56:13.092Z,1.07
2019-05-20T15:58:39.503Z,0.90
2019-05-20T16:01:05.911Z,1.05
2019-05-20T16:03:32.256Z,1.05
2019-05-20T16:05:59.920Z,1.00
2019-05-20T16:08:26.693Z,0.85
2019-05-20T16:10:53.015Z,1.00
2019-05-20T16:13:19.315Z,0.75
2019-05-20T16:15:45.748Z,1.05
2019-05-20T16:18:13.146Z,1.20
2019-05-20T16:20:39.606Z,1.22
2019-05-20T16:23:06.187Z,1.80
2019-05-20T16:25:32.618Z,1.57
2019-05-20T16:27:58.935Z,2.10
2019-05-20T16:30:27.308Z,2.15
2019-05-20T16:32:54.068Z,2.98
2019-05-20T16:35:20.480Z,2.05
2019-05-20T16:37:46.989Z,1.67
2019-05-20T16:40:13.290Z,2.02
2019-05-20T16:42:39.711Z,1.65
2019-05-20T16:45:06.838Z,1.80
2019-05-20T16:47:33.143Z,1.45
2019-05-20T16:49:59.461Z,1.60
2019-05-20T16:52:25.784Z,1.47
2019-05-20T16:54:53.011Z,1.52
2019-05-20T16:57:19.707Z,1.10
2019-05-20T16:59:46.032Z,0.98
2019-05-20T17:02:12.736Z,1.20
2019-05-20T17:04:39.053Z,1.20
2019-05-20T17:07:05.367Z,1.05
2019-05-20T17:09:31.898Z,0.93
2019-05-20T17:11:58.214Z,0.70
2019-05-20T17:14:24.635Z,0.88
2019-05-20T17:16:51.209Z,0.90
2019-05-20T17:19:17.517Z,0.88
2019-05-20T17:21:43.963Z,1.10
2019-05-20T17:24:10.252Z,0.80
2019-05-20T17:26:36.723Z,0.70
2019-05-20T17:29:02.974Z,0.72
2019-05-20T17:31:30.902Z,0.93
2019-05-20T17:33:57.558Z,1.02
2019-05-20T17:36:23.916Z,1.35
2019-05-20T17:38:50.219Z,1.50
2019-05-20T17:41:16.631Z,1.40
2019-05-20T17:43:43.086Z,0.98
2019-05-20T17:46:55.944Z,1.02
2019-05-20T17:49:22.349Z,1.10
2019-05-20T17:51:48.755Z,1.20
2019-05-20T17:54:15.175Z,3.52
2019-05-20T17:56:41.579Z,2.10
2019-05-20T17:59:10.047Z,2.95
2019-05-20T18:01:36.459Z,2.47
2019-05-20T18:04:03.910Z,2.90
2019-05-20T18:06:30.178Z,2.33
2019-05-20T18:08:58.507Z,1.95
2019-05-20T18:11:24.831Z,2.02
2019-05-20T18:13:51.304Z,1.80
2019-05-20T18:16:17.753Z,1.75
2019-05-20T18:18:44.318Z,1.70
2019-05-20T18:21:10.926Z,1.30
2019-05-20T18:23:37.440Z,1.47
2019-05-20T18:26:03.924Z,1.27
2019-05-20T18:28:30.348Z,1.60
2019-05-20T18:30:56.778Z,1.30
2019-05-20T18:33:23.090Z,1.20
2019-05-20T18:35:49.441Z,1.32
2019-05-20T18:38:15.736Z,1.35
2019-05-20T18:40:42.148Z,1.30
2019-05-20T18:43:08.671Z,1.50
2019-05-20T18:45:35.076Z,1.40
2019-05-20T18:48:01.409Z,1.00
2019-05-20T18:50:27.821Z,1.22
2019-05-20T18:52:54.212Z,1.17
2019-05-20T18:55:20.565Z,1.10
2019-05-20T18:57:47.671Z,1.50
2019-05-20T19:00:14.104Z,1.17
2019-05-20T19:02:40.511Z,1.27
2019-05-20T19:05:06.837Z,1.07
2019-05-20T19:07:33.307Z,0.98
2019-05-20T19:09:59.612Z,1.10
2019-05-20T19:12:26.916Z,1.20
2019-05-20T19:14:53.159Z,1.30
2019-05-20T19:17:19.564Z,1.10
2019-05-20T19:19:45.987Z,1.17
2019-05-20T19:22:12.301Z,1.42
2019-05-20T19:24:38.629Z,0.95
2019-05-20T19:27:05.505Z,1.15
2019-05-20T19:29:31.842Z,1.37
2019-05-20T19:32:01.937Z,2.98
2019-05-20T19:34:40.150Z,3.30
2019-05-20T19:37:06.428Z,2.75
2019-05-20T19:39:32.731Z,2.60
2019-05-20T19:42:01.875Z,2.30
2019-05-20T19:44:28.156Z,2.12
2019-05-20T19:46:54.458Z,1.65
2019-05-20T19:49:21.146Z,1.98
2019-05-20T19:51:47.655Z,1.77
2019-05-20T19:54:20.039Z,1.90
2019-05-20T19:56:49.956Z,1.57
2019-05-20T19:59:20.643Z,1.35
2019-05-20T20:01:46.987Z,1.45
2019-05-20T20:04:13.399Z,1.65
2019-05-20T20:06:39.767Z,1.30
2019-05-20T20:09:06.280Z,1.25
2019-05-20T20:11:32.700Z,1.42
2019-05-20T20:13:59.349Z,1.27
2019-05-20T20:16:25.872Z,1.45
2019-05-20T20:18:52.176Z,1.60
2019-05-20T20:21:18.605Z,1.60
2019-05-20T20:23:44.895Z,1.60
2019-05-20T20:26:11.326Z,1.42
2019-05-20T20:28:37.629Z,2.00
2019-05-20T20:31:03.931Z,1.05
2019-05-20T20:33:30.270Z,1.42
2019-05-20T20:35:56.564Z,1.00
2019-05-20T20:38:23.120Z,1.10
2019-05-20T20:40:49.541Z,1.20
2019-05-20T20:43:15.841Z,1.17
2019-05-20T20:45:42.243Z,1.00
2019-05-20T20:48:08.745Z,1.30
2019-05-20T20:50:35.169Z,1.30
2019-05-20T20:53:01.518Z,1.00
2019-05-20T20:55:27.824Z,1.20
2019-05-20T20:57:54.223Z,1.10
2019-05-20T21:00:20.567Z,1.10
2019-05-20T21:02:53.442Z,1.30
2019-05-20T21:05:15.076Z,0.80
2019-05-20T21:07:41.387Z,1.07
2019-05-20T21:10:07.941Z,1.10
2019-05-20T21:12:34.258Z,0.90
2019-05-20T21:15:00.560Z,1.20
2019-05-20T21:17:26.870Z,1.20
2019-05-20T21:19:53.185Z,1.12
2019-05-20T21:22:19.498Z,1.20
2019-05-20T21:24:45.815Z,1.20
2019-05-20T21:27:12.122Z,1.00
2019-05-20T21:29:38.420Z,0.80
2019-05-20T21:32:04.756Z,1.07
2019-05-20T21:34:31.517Z,0.90
2019-05-20T21:36:57.899Z,1.00
2019-05-20T21:39:24.206Z,0.85
2019-05-20T21:41:50.504Z,0.98
2019-05-20T21:44:16.826Z,1.00
2019-05-20T21:46:43.150Z,0.88
2019-05-20T21:49:09.457Z,1.30
2019-05-20T21:51:35.863Z,0.90
2019-05-20T21:54:02.267Z,0.90
2019-05-20T21:56:28.572Z,0.80
2019-05-20T21:58:54.872Z,0.80
2019-05-20T22:01:21.305Z,1.17
2019-05-20T22:03:47.807Z,0.90
2019-05-20T22:06:14.171Z,0.88
2019-05-20T22:08:40.504Z,0.80
2019-05-20T22:11:07.012Z,1.10
2019-05-20T22:13:33.375Z,0.90
2019-05-20T22:15:59.779Z,0.93
2019-05-20T22:18:26.300Z,0.80
2019-05-20T22:20:52.615Z,0.88
2019-05-20T22:23:26.847Z,1.00
2019-05-20T22:25:53.268Z,0.90
2019-05-20T22:28:19.566Z,1.20
2019-05-20T22:30:46.001Z,0.82
2019-05-20T22:33:12.331Z,0.98
2019-05-20T22:35:38.644Z,0.98
2019-05-20T22:38:05.399Z,1.00
2019-05-20T22:40:31.848Z,0.90
2019-05-20T22:42:58.203Z,1.12
2019-05-20T22:45:24.756Z,0.93
2019-05-20T22:47:51.086Z,0.93
2019-05-20T22:50:17.495Z,0.98
2019-05-20T22:52:43.802Z,0.80
2019-05-20T22:55:10.123Z,0.90
2019-05-20T22:57:36.419Z,1.05
2019-05-20T23:00:03.925Z,0.90
2019-05-20T23:02:30.348Z,0.93
2019-05-20T23:04:56.807Z,1.00
2019-05-20T23:07:23.267Z,0.80
2019-05-20T23:09:49.571Z,0.93
2019-05-20T23:12:16.204Z,0.82
2019-05-20T23:14:42.612Z,0.80
2019-05-20T23:17:08.925Z,0.90
2019-05-20T23:19:35.253Z,1.00
2019-05-20T23:22:01.545Z,0.90
2019-05-20T23:24:27.861Z,1.00
2019-05-20T23:26:54.285Z,0.80
2019-05-20T23:29:20.584Z,1.07
2019-05-20T23:31:46.910Z,1.00
2019-05-20T23:34:13.433Z,0.80
2019-05-20T23:36:40.112Z,0.85
2019-05-20T23:39:07.330Z,0.95
2019-05-20T23:41:33.732Z,0.90
2019-05-20T23:44:00.108Z,1.00
2019-05-20T23:46:26.371Z,0.82
2019-05-20T23:48:52.673Z,0.90
2019-05-20T23:51:18.987Z,1.05
2019-05-20T23:53:45.295Z,0.90
2019-05-20T23:56:11.619Z,0.82
2019-05-20T23:58:38.027Z,0.90
